CST,Max TemperatureF,Mean TemperatureF,Min TemperatureF,Max Dew PointF,MeanDew PointF,Min DewpointF,Max Humidity, Mean Humidity, Min Humidity, Max Sea Level PressureIn, Mean Sea Level PressureIn, Min Sea Level PressureIn, Max VisibilityMiles, Mean VisibilityMiles, Min VisibilityMiles, Max Wind SpeedMPH, Mean Wind SpeedMPH, Max Gust SpeedMPH,PrecipitationIn, CloudCover, Events, WindDirDegrees
2013-1-1,14,0,-13,9,-3,-18,85,77,62,30.23,30.17,30.05,10,10,10,9,3,,0.00,4,Snow,230
2013-1-2,24,14,5,21,9,0,93,84,72,30.07,29.99,29.94,10,7,0,18,6,24,0.00,6,Snow,211
2013-1-3,19,12,5,14,4,1,85,79,67,30.25,30.19,30.07,10,9,4,16,12,24,0.00,3,Snow,276
2013-1-4,26,16,6,16,11,1,92,77,59,30.15,30.10,30.06,10,10,7,12,7,17,0.00,0,,234
2013-1-5,28,17,6,19,12,1,93,82,69,30.11,29.96,29.84,10,8,5,15,7,20,0.00,0,,224
2013-1-6,19,14,8,12,7,1,92,79,63,30.21,30.14,29.99,10,10,7,15,8,16,0.00,2,Snow,267
2013-1-7,33,22,10,25,19,9,93,78,69,30.10,29.98,29.92,10,9,0,21,11,25,0.00,4,Fog,203
2013-1-8,35,32,28,30,27,23,86,79,75,29.99,29.89,29.80,10,6,0,16,4,22,0.00,3,Fog,201
2013-1-9,35,28,21,25,23,19,93,75,56,30.37,30.22,29.96,10,10,10,17,9,25,0.00,1,,247
2013-1-10,37,32,26,32,25,21,93,76,52,30.35,30.09,29.74,10,8,1,15,9,22,0.15,4,Rain-Snow,151
2013-1-11,42,38,33,39,35,32,100,94,87,29.72,29.54,29.42,7,1,0,13,6,17,0.00,8,Fog-Snow,169
2013-1-12,37,22,8,37,11,0,100,73,62,30.04,29.85,29.44,10,9,2,25,15,33,0.00,6,Snow,269
2013-1-13,10,6,3,1,-1,-4,79,73,67,30.23,30.09,29.99,10,10,4,14,10,21,0.00,4,Snow,294
2013-1-14,19,11,3,10,5,0,85,76,63,30.37,30.32,30.23,10,10,10,10,4,9,0.00,2,Snow,238
2013-1-15,30,20,10,18,13,7,85,72,55,30.30,30.16,29.92,10,10,10,17,8,24,0.00,0,,200
2013-1-16,39,28,17,32,22,10,93,78,68,30.18,29.87,29.72,10,9,2,18,13,26,0.00,5,Rain-Snow,272
2013-1-17,24,15,6,16,7,-2,86,68,49,30.38,30.32,30.19,10,10,10,14,7,18,0.00,4,,292
2013-1-18,44,32,21,32,26,14,87,73,57,30.26,29.92,29.76,10,10,10,21,9,30,0.00,1,,208
2013-1-19,42,22,3,30,21,-4,93,74,61,30.16,29.86,29.72,10,10,5,34,11,45,0.00,3,Snow,271
2013-1-20,10,5,0,1,-4,-6,78,68,48,30.35,30.27,30.19,10,10,2,23,14,29,0.00,2,Snow,300
2013-1-21,1,-4,-9,-9,-13,-18,78,65,55,30.30,30.25,30.22,10,9,3,22,16,32,0.00,1,,298
2013-1-22,8,0,-7,0,-9,-15,78,66,52,30.35,30.28,30.21,10,10,10,10,7,16,0.00,2,,286
2013-1-23,17,8,-2,10,2,-15,86,70,51,30.52,30.22,30.11,10,7,2,25,9,36,0.00,5,Snow,296
2013-1-24,15,6,-4,0,-9,-15,66,55,41,30.60,30.43,30.17,10,10,10,14,8,21,0.00,1,,115
2013-1-25,23,13,3,16,4,-2,79,66,39,30.24,30.08,29.96,10,10,2,25,12,36,0.00,3,Snow,274
2013-1-26,26,13,0,9,2,-6,85,60,43,30.31,30.22,30.12,10,10,10,14,6,21,0.00,3,,162
2013-1-27,32,28,24,30,23,10,93,77,51,30.12,29.92,29.76,10,5,1,15,8,21,0.32,7,Snow,150
2013-1-28,35,32,30,34,30,28,100,94,87,29.89,29.79,29.58,4,1,0,8,1,,0.00,8,Fog-Thunderstorm,123
2013-1-29,37,32,28,37,31,23,100,88,80,29.65,29.58,29.51,10,6,0,22,7,29,0.02,8,Fog-Snow-Thunderstorm,331
2013-1-30,28,18,8,23,13,1,86,78,73,29.73,29.61,29.53,10,7,1,25,19,36,0.00,8,Snow,325
2013-1-31,8,0,-7,1,-8,-15,79,71,60,30.24,29.98,29.73,10,7,3,25,19,34,0.00,4,Snow,300